Time;durP1;ratioP1;P1;durP2;ratioP2;P2;SDS_P1;SDS_P2;PMS_P1;PMS_P2;Temp;Humidity;BMP_temperature;BMP_pressure;BME280_temperature;BME280_humidity;BME280_pressure;Samples;Min_cycle;Max_cycle;Signal;HPM_P1;HPM_P2
2022/06/06 00:03:54;;;;;;;3.00;2.80;;;;;;;25.32;41.13;100250.00;20766530;27;98391;-76
2022/06/06 00:13:56;;;;;;;2.93;2.73;;;;;;;25.32;40.97;100236.75;20787911;27;97072;-75
2022/06/06 00:23:59;;;;;;;7.63;2.80;;;;;;;25.34;40.86;100231.28;20783675;27;97310;-76
2022/06/06 00:44:27;;;;;;;2.67;2.47;;;;;;;25.33;40.99;100256.13;20783596;27;97824;-75
2022/06/06 00:54:28;;;;;;;2.95;2.45;;;;;;;25.33;41.09;100267.56;20753021;27;97992;-75
2022/06/06 01:04:30;;;;;;;2.60;2.40;;;;;;;25.34;40.97;100279.00;20774979;27;101111;-76
2022/06/06 01:14:35;;;;;;;;;;;;;;;25.35;40.95;100304.50;20777229;27;99174;-76
2022/06/06 01:24:42;;;;;;;2.35;2.22;;;;;;;25.34;41.48;100321.41;20784111;27;100046;-75
2022/06/06 01:34:43;;;;;;;2.50;2.30;;;;;;;25.33;41.77;100355.03;20786387;27;98937;-76
2022/06/06 01:45:10;;;;;;;2.33;2.13;;;;;;;25.32;41.91;100363.13;20788943;27;98123;-76
2022/06/06 01:55:11;;;;;;;3.25;2.30;;;;;;;25.33;41.50;100370.94;20791793;27;97293;-75
2022/06/06 02:05:14;;;;;;;3.00;2.53;;;;;;;25.32;41.54;100387.00;20791591;27;97514;-76
2022/06/06 02:15:18;;;;;;;3.08;2.15;;;;;;;25.33;41.99;100404.53;20790442;27;97781;-76
2022/06/06 02:25:19;;;;;;;2.58;2.28;;;;;;;25.32;41.83;100411.66;20793059;27;99761;-76
2022/06/06 02:35:23;;;;;;;2.17;2.07;;;;;;;25.34;41.73;100372.59;20782032;27;100090;-75
2022/06/06 02:45:24;;;;;;;2.50;2.30;;;;;;;25.31;41.92;100387.97;20791362;27;97469;-75
2022/06/06 02:55:25;;;;;;;2.23;2.07;;;;;;;25.33;42.03;100393.94;20789067;27;97835;-76
2022/06/06 03:05:36;;;;;;;4.37;2.17;;;;;;;25.33;42.25;100413.34;20789966;27;98534;-77
2022/06/06 03:15:41;;;;;;;2.75;2.20;;;;;;;25.34;42.28;100420.31;20788730;27;97068;-76
2022/06/06 03:25:55;;;;;;;2.20;2.10;;;;;;;25.34;42.29;100400.91;20778816;27;97768;-76
2022/06/06 03:36:09;;;;;;;2.40;2.20;;;;;;;25.33;41.99;100378.88;20767078;27;98839;-76
2022/06/06 03:46:26;;;;;;;2.35;2.10;;;;;;;25.32;42.35;100377.22;20785929;27;99695;-76
2022/06/06 03:56:46;;;;;;;4.22;2.50;;;;;;;25.32;42.20;100358.66;20788034;27;97976;-76
2022/06/06 04:06:48;;;;;;;2.00;1.90;;;;;;;25.33;41.90;100339.13;20777601;27;98136;-76
2022/06/06 04:17:14;;;;;;;2.50;2.30;;;;;;;25.33;41.93;100341.78;20776197;27;97659;-75
2022/06/06 04:27:35;;;;;;;2.38;2.17;;;;;;;25.32;42.09;100347.22;20777663;27;96953;-76
2022/06/06 04:37:46;;;;;;;5.13;2.30;;;;;;;25.31;41.96;100348.22;20763476;27;98615;-76
2022/06/06 04:47:47;;;;;;;4.30;2.50;;;;;;;25.30;41.45;100363.25;20773937;27;96895;-79
2022/06/06 04:57:54;;;;;;;;;;;;;;;24.87;39.18;100380.59;20766772;27;98062;-79
2022/06/06 05:08:03;;;;;;;5.03;3.33;;;;;;;24.60;39.26;100401.50;20772931;27;98881;-79
2022/06/06 05:18:18;;;;;;;5.65;3.50;;;;;;;24.43;39.45;100396.91;20784082;27;97276;-86
2022/06/06 05:28:36;;;;;;;5.80;3.92;;;;;;;24.23;40.20;100410.16;20799855;27;99349;-84
2022/06/06 05:39:15;;;;;;;8.55;4.13;;;;;;;23.52;41.04;100426.09;20791612;27;99359;-79
2022/06/06 05:49:25;;;;;;;9.60;4.03;;;;;;;24.16;41.85;100410.81;20778933;27;98134;-80
2022/06/06 05:59:30;;;;;;;17.95;3.90;;;;;;;24.35;42.98;100413.50;20776828;27;97241;-81
2022/06/06 06:10:01;;;;;;;7.88;3.80;;;;;;;24.53;42.48;100434.78;20813742;27;100926;-81
2022/06/06 06:20:10;;;;;;;9.35;3.72;;;;;;;24.62;42.45;100426.03;20816552;27;97366;-81
2022/06/06 06:30:12;;;;;;;4.10;3.25;;;;;;;24.70;42.56;100437.75;20826219;27;96927;-81
2022/06/06 06:40:40;;;;;;;7.78;3.40;;;;;;;24.75;42.71;100432.88;20812982;27;97924;-81
2022/06/06 06:51:03;;;;;;;5.38;3.60;;;;;;;24.81;42.51;100434.13;20822604;27;96940;-81
2022/06/06 07:01:07;;;;;;;5.13;3.70;;;;;;;24.83;42.48;100435.66;20819964;27;97293;-81
2022/06/06 07:11:12;;;;;;;3.92;2.90;;;;;;;24.88;42.54;100440.53;20799833;27;97278;-81
2022/06/06 07:21:17;;;;;;;4.72;3.55;;;;;;;24.90;42.63;100435.91;20816449;27;98475;-81
2022/06/06 07:31:31;;;;;;;3.88;3.05;;;;;;;24.93;42.61;100444.41;20816031;27;96962;-81
2022/06/06 07:42:02;;;;;;;3.22;2.92;;;;;;;24.97;42.73;100449.44;20817254;27;97234;-81
2022/06/06 07:52:24;;;;;;;4.77;3.17;;;;;;;25.00;42.65;100457.06;20818762;27;97801;-81
2022/06/06 08:02:48;;;;;;;4.20;2.95;;;;;;;25.03;42.64;100462.91;20669645;27;97066;-81
2022/06/06 08:13:18;;;;;;;4.88;3.03;;;;;;;25.06;42.81;100462.66;20664164;28;97515;-81
2022/06/06 08:23:20;;;;;;;2.80;2.60;;;;;;;25.09;42.63;100462.34;20637970;28;97014;-80
2022/06/06 08:33:21;;;;;;;3.50;2.63;;;;;;;25.12;42.71;100463.06;20648761;28;98707;-81
2022/06/06 08:43:59;;;;;;;3.37;2.83;;;;;;;25.14;42.92;100461.94;20653383;28;96994;-80
2022/06/06 08:54:32;;;;;;;2.90;2.60;;;;;;;25.17;42.86;100459.00;20662025;28;97121;-81
2022/06/06 09:04:57;;;;;;;4.38;2.50;;;;;;;25.19;42.84;100461.50;20787423;27;97438;-81
2022/06/06 09:15:37;;;;;;;2.58;2.38;;;;;;;25.21;43.08;100451.59;20797273;27;97638;-81
2022/06/06 09:25:52;;;;;;;5.10;2.65;;;;;;;25.21;42.92;100435.69;20785747;27;101153;-82
2022/06/06 09:36:18;;;;;;;2.60;2.40;;;;;;;25.20;43.03;100423.44;20800944;27;97694;-81
2022/06/06 09:46:21;;;;;;;3.17;2.85;;;;;;;25.21;43.34;100423.28;20818004;27;97006;-81
2022/06/06 10:07:27;;;;;;;3.58;3.03;;;;;;;25.23;43.08;100402.78;20832067;27;98919;-82
2022/06/06 10:17:52;;;;;;;3.55;2.75;;;;;;;25.26;43.20;100402.47;20822476;27;96926;-81
2022/06/06 10:28:14;;;;;;;3.25;2.53;;;;;;;25.30;43.28;100392.41;20821201;27;96949;-81
2022/06/06 10:38:46;;;;;;;2.90;2.70;;;;;;;25.35;43.21;100394.63;20812311;27;97738;-81
2022/06/06 10:49:14;;;;;;;3.45;3.15;;;;;;;25.39;43.37;100370.38;20824921;27;97066;-82
2022/06/06 10:59:47;;;;;;;3.30;3.00;;;;;;;25.43;43.33;100365.63;20814409;27;97996;-81
2022/06/06 11:10:07;;;;;;;3.83;3.53;;;;;;;25.47;43.31;100352.91;20819587;27;96979;-81
2022/06/06 11:20:16;;;;;;;4.20;3.80;;;;;;;25.51;43.39;100349.81;20822348;27;97894;-81
2022/06/06 11:30:44;;;;;;;4.78;4.32;;;;;;;25.55;43.26;100337.91;20815743;27;97933;-80
2022/06/06 11:41:09;;;;;;;4.57;4.13;;;;;;;25.59;43.33;100340.28;20823989;27;97265;-81
2022/06/06 11:51:35;;;;;;;5.45;4.88;;;;;;;25.64;43.28;100332.69;20825684;27;97014;-81
2022/06/06 12:02:07;;;;;;;6.25;5.65;;;;;;;25.70;43.20;100316.19;20819163;27;96883;-82
2022/06/06 12:12:10;;;;;;;6.38;5.78;;;;;;;25.75;42.89;100305.13;20818902;27;97610;-82
2022/06/06 12:22:29;;;;;;;7.15;6.00;;;;;;;25.80;43.15;100300.19;20811422;27;100572;-82
2022/06/06 12:33:02;;;;;;;7.65;6.85;;;;;;;25.85;43.07;100289.97;20795917;27;97743;-82
2022/06/06 12:43:29;;;;;;;8.15;7.35;;;;;;;25.91;42.80;100277.94;20814299;27;96953;-82
2022/06/06 12:53:49;;;;;;;7.85;7.05;;;;;;;25.95;43.11;100269.50;20814146;27;97352;-82
2022/06/06 13:04:10;;;;;;;7.22;6.53;;;;;;;26.01;42.87;100265.38;20795745;27;97476;-82
2022/06/06 13:14:28;;;;;;;8.10;7.30;;;;;;;26.06;43.01;100257.78;20810454;27;96839;-82
2022/06/06 13:24:51;;;;;;;7.57;6.78;;;;;;;26.11;42.80;100247.59;20786409;27;97328;-82
2022/06/06 13:35:01;;;;;;;8.25;6.90;;;;;;;26.16;42.90;100245.31;20824303;27;97697;-82
2022/06/06 13:45:24;;;;;;;7.55;6.75;;;;;;;26.20;42.51;100237.88;20811203;27;97152;-82
2022/06/06 13:55:30;;;;;;;7.22;6.53;;;;;;;26.25;42.54;100237.41;20826223;27;96904;-82
2022/06/06 14:05:48;;;;;;;6.97;6.25;;;;;;;26.28;42.79;100222.00;20819702;27;97229;-81
2022/06/06 14:15:49;;;;;;;6.72;6.13;;;;;;;26.30;42.50;100222.66;20795941;27;102534;-81
2022/06/06 14:25:56;;;;;;;6.25;5.70;;;;;;;26.34;42.61;100225.84;20800478;27;98594;-82
2022/06/06 14:36:20;;;;;;;6.72;6.03;;;;;;;26.35;42.72;100223.06;20806662;27;97319;-81
2022/06/06 14:46:21;;;;;;;7.47;6.38;;;;;;;26.39;42.48;100226.22;20791916;27;96900;-81
2022/06/06 14:56:29;;;;;;;6.80;6.17;;;;;;;26.40;42.79;100211.94;20805168;27;97452;-81
2022/06/06 15:06:47;;;;;;;6.55;5.95;;;;;;;26.44;42.50;100201.84;20804983;27;97434;-81
2022/06/06 15:16:48;;;;;;;5.93;5.43;;;;;;;26.45;42.61;100203.50;20812289;27;97186;-81
2022/06/06 15:27:04;;;;;;;;;;;;;;;26.44;42.83;100192.06;20824301;27;97002;-81
2022/06/06 15:37:24;;;;;;;5.82;5.30;;;;;;;26.43;42.89;100197.53;20816174;27;100855;-81
2022/06/06 15:47:46;;;;;;;5.30;4.80;;;;;;;26.44;42.62;100197.38;20815055;27;97739;-81
2022/06/06 15:58:07;;;;;;;12.00;5.30;;;;;;;26.51;42.87;100201.06;20767083;27;101693;-81
2022/06/06 16:08:32;;;;;;;6.00;4.10;;;;;;;26.55;41.34;100198.06;20789202;27;98556;-83
2022/06/06 16:18:41;;;;;;;4.30;3.80;;;;;;;26.55;39.23;100195.41;20778250;27;97613;-79
2022/06/06 16:28:50;;;;;;;6.88;3.83;;;;;;;26.58;38.73;100189.81;20763195;27;98065;-79
2022/06/06 16:38:59;;;;;;;4.13;3.50;;;;;;;26.63;36.64;100201.59;20765634;27;98721;-80
2022/06/06 16:49:09;;;;;;;6.85;3.00;;;;;;;26.65;33.93;100204.94;20764924;27;99105;-78
2022/06/06 16:59:20;;;;;;;4.60;3.28;;;;;;;26.68;32.96;100209.94;20747361;27;98960;-76
2022/06/06 17:09:45;;;;;;;3.83;3.13;;;;;;;26.67;34.48;100202.94;20787188;27;97620;-76
2022/06/06 17:20:33;;;;;;;3.90;3.60;;;;;;;26.74;35.39;100200.47;20775274;27;100096;-78
2022/06/06 17:30:43;;;;;;;6.88;3.45;;;;;;;26.79;36.37;100194.72;20765835;27;97283;-77
2022/06/06 17:40:44;;;;;;;4.83;2.60;;;;;;;26.77;39.36;100197.53;20757758;27;97993;-77
2022/06/06 17:50:58;;;;;;;3.50;2.10;;;;;;;26.77;40.79;100216.13;20772182;27;97890;-78
2022/06/06 18:01:33;;;;;;;2.30;1.95;;;;;;;26.79;41.40;100208.84;20779039;27;96933;-77
2022/06/06 18:12:00;;;;;;;5.35;3.17;;;;;;;26.75;41.60;100211.97;20761739;27;98694;-77
2022/06/06 18:22:02;;;;;;;2.85;2.65;;;;;;;26.74;42.15;100216.41;20770192;27;100923;-79
2022/06/06 18:32:14;;;;;;;3.30;2.35;;;;;;;26.72;42.03;100215.75;20776659;27;102671;-78
2022/06/06 18:42:35;;;;;;;4.68;2.70;;;;;;;26.68;42.33;100212.59;20777255;27;96977;-79
2022/06/06 18:52:37;;;;;;;5.93;3.50;;;;;;;26.66;42.21;100219.06;20764342;27;98291;-78
2022/06/06 19:02:43;;;;;;;3.30;2.90;;;;;;;26.55;42.41;100228.13;20779178;27;100389;-77
2022/06/06 19:13:01;;;;;;;2.30;2.10;;;;;;;26.43;42.55;100238.19;20778009;27;99182;-78
2022/06/06 19:23:04;;;;;;;6.55;2.55;;;;;;;26.33;42.95;100237.44;20702059;27;101519;-78
2022/06/06 19:33:28;;;;;;;3.65;1.98;;;;;;;26.23;43.23;100248.16;20694153;27;97563;-77
2022/06/06 19:43:32;;;;;;;4.20;1.90;;;;;;;26.13;42.87;100236.81;20770706;27;99584;-77
2022/06/06 19:53:44;;;;;;;2.00;1.73;;;;;;;26.06;43.67;100241.88;20763345;27;97442;-78
2022/06/06 20:03:46;;;;;;;3.30;2.20;;;;;;;25.97;43.73;100235.69;20764557;27;96934;-78
2022/06/06 20:13:53;;;;;;;2.30;2.10;;;;;;;25.85;43.79;100240.41;20768729;27;97029;-78
2022/06/06 20:23:55;;;;;;;2.17;1.80;;;;;;;25.79;44.38;100233.03;20767603;27;97155;-78
2022/06/06 20:33:59;;;;;;;4.47;2.65;;;;;;;25.70;44.75;100237.44;20785751;27;97019;-78
2022/06/06 20:44:04;;;;;;;3.75;2.20;;;;;;;25.62;44.71;100226.81;20773085;27;97871;-77
2022/06/06 20:54:17;;;;;;;2.28;2.08;;;;;;;25.55;45.18;100220.44;20784776;27;99477;-78
2022/06/06 21:04:19;;;;;;;2.35;2.10;;;;;;;25.56;45.33;100224.72;20779040;27;97993;-78
2022/06/06 21:14:20;;;;;;;4.82;2.05;;;;;;;25.46;45.65;100219.50;20776811;27;99652;-78
2022/06/06 21:24:27;;;;;;;3.40;2.10;;;;;;;25.42;45.28;100234.06;20771697;27;101148;-77
2022/06/06 21:34:28;;;;;;;2.90;2.20;;;;;;;25.38;45.88;100228.22;20782683;27;97478;-75
2022/06/06 21:44:29;;;;;;;4.93;2.40;;;;;;;25.35;45.71;100220.56;20779636;27;99824;-74
2022/06/06 21:54:30;;;;;;;2.97;2.37;;;;;;;25.30;45.91;100217.50;20792273;27;98078;-76
2022/06/06 22:04:32;;;;;;;4.53;2.80;;;;;;;25.28;46.02;100214.19;20782911;27;100213;-76
2022/06/06 22:14:34;;;;;;;3.63;3.00;;;;;;;25.24;46.11;100212.81;20771429;27;100474;-76
2022/06/06 22:24:35;;;;;;;5.15;3.40;;;;;;;25.16;46.36;100210.06;20780222;27;99110;-76
2022/06/06 22:34:35;;;;;;;3.70;3.15;;;;;;;25.12;46.62;100219.31;20786949;27;97096;-76
2022/06/06 22:44:36;;;;;;;4.30;2.92;;;;;;;25.05;46.97;100219.06;20762304;27;97254;-76
2022/06/06 22:54:36;;;;;;;4.13;2.88;;;;;;;24.97;47.00;100217.16;20772628;27;100352;-76
2022/06/06 23:04:37;;;;;;;3.28;2.97;;;;;;;24.93;47.24;100211.31;20789455;27;99415;-76
2022/06/06 23:14:38;;;;;;;3.53;3.03;;;;;;;24.88;47.60;100210.09;20792077;27;97148;-75
2022/06/06 23:24:39;;;;;;;5.18;2.95;;;;;;;24.81;47.57;100201.09;20773925;27;97142;-76
2022/06/06 23:34:40;;;;;;;5.80;3.33;;;;;;;24.77;47.76;100196.06;20782669;27;97260;-76
2022/06/06 23:55:05;;;;;;;4.13;3.50;;;;;;;24.64;48.16;100184.94;20786399;27;97919;-77
